createdAt,value
2018-03-16T00:00:49.490Z,6.85
2018-03-16T00:01:50.112Z,6.85
2018-03-16T00:02:50.705Z,6.85
2018-03-16T00:03:51.359Z,6.91
2018-03-16T00:04:51.972Z,6.91
2018-03-16T00:05:52.635Z,6.89
2018-03-16T00:06:53.437Z,6.91
2018-03-16T00:07:54.109Z,6.94
2018-03-16T00:08:54.749Z,7.00
2018-03-16T00:09:55.386Z,6.99
2018-03-16T00:10:56.054Z,6.97
2018-03-16T00:11:56.670Z,6.99
2018-03-16T00:12:57.289Z,7.02
2018-03-16T00:13:57.916Z,7.03
2018-03-16T00:14:58.549Z,7.04
2018-03-16T00:15:59.202Z,7.03
2018-03-16T00:16:59.788Z,7.06
2018-03-16T00:18:00.411Z,7.02
2018-03-16T00:19:01.044Z,6.96
2018-03-16T00:20:01.673Z,7.02
2018-03-16T00:21:02.359Z,6.96
2018-03-16T00:22:02.956Z,7.02
2018-03-16T00:23:03.620Z,7.02
2018-03-16T00:24:04.262Z,7.02
2018-03-16T00:25:04.932Z,7.04
2018-03-16T00:26:05.547Z,7.02
2018-03-16T00:27:06.179Z,7.02
2018-03-16T00:28:06.824Z,7.04
2018-03-16T00:29:07.419Z,7.02
2018-03-16T00:30:08.085Z,6.97
2018-03-16T00:31:08.727Z,7.00
2018-03-16T00:32:09.375Z,6.99
2018-03-16T00:33:10.029Z,6.99
2018-03-16T00:34:10.689Z,7.00
2018-03-16T00:35:11.316Z,6.86
2018-03-16T00:36:11.969Z,6.99
2018-03-16T00:37:12.554Z,6.97
2018-03-16T00:38:13.162Z,6.99
2018-03-16T00:39:13.739Z,6.99
2018-03-16T00:40:14.411Z,6.84
2018-03-16T00:41:15.060Z,7.02
2018-03-16T00:42:15.704Z,7.03
2018-03-16T00:43:16.332Z,6.99
2018-03-16T00:44:16.985Z,6.97
2018-03-16T00:45:17.608Z,7.00
2018-03-16T00:46:18.226Z,6.99
2018-03-16T00:47:18.849Z,6.94
2018-03-16T00:48:19.448Z,7.02
2018-03-16T00:49:20.084Z,6.99
2018-03-16T00:50:20.676Z,6.96
2018-03-16T00:51:21.329Z,6.99
2018-03-16T00:52:21.946Z,7.02
2018-03-16T00:53:22.567Z,7.00
2018-03-16T00:54:23.222Z,6.85
2018-03-16T00:55:23.880Z,7.00
2018-03-16T00:56:24.483Z,7.03
2018-03-16T00:57:25.085Z,6.94
2018-03-16T00:58:25.730Z,6.96
2018-03-16T00:59:26.329Z,6.97
2018-03-16T01:00:26.998Z,6.96
2018-03-16T01:01:27.586Z,7.02
2018-03-16T01:02:28.188Z,6.88
2018-03-16T01:03:28.793Z,7.02
2018-03-16T01:04:29.415Z,6.97
2018-03-16T01:05:30.017Z,7.03
2018-03-16T01:06:30.634Z,6.97
2018-03-16T01:07:31.331Z,7.02
2018-03-16T01:08:31.954Z,7.06
2018-03-16T01:09:32.628Z,6.99
2018-03-16T01:10:33.264Z,6.97
2018-03-16T01:11:33.906Z,6.99
2018-03-16T01:12:34.569Z,6.94
2018-03-16T01:13:35.151Z,6.99
2018-03-16T01:14:35.830Z,6.97
2018-03-16T01:15:36.491Z,6.99
2018-03-16T01:16:37.165Z,7.02
2018-03-16T01:17:37.836Z,6.96
2018-03-16T01:18:38.528Z,7.00
2018-03-16T01:19:39.165Z,6.99
2018-03-16T01:20:39.910Z,7.00
2018-03-16T01:21:40.578Z,7.00
2018-03-16T01:22:41.233Z,7.02
2018-03-16T01:23:41.911Z,7.00
2018-03-16T01:24:42.561Z,7.02
2018-03-16T01:25:43.212Z,7.04
2018-03-16T01:26:43.846Z,7.10
2018-03-16T01:27:44.428Z,7.10
2018-03-16T01:28:45.116Z,7.07
2018-03-16T01:29:45.778Z,7.18
2018-03-16T01:30:46.421Z,7.12
2018-03-16T01:31:47.023Z,7.09
2018-03-16T01:32:47.720Z,7.15
2018-03-16T01:33:48.389Z,7.12
2018-03-16T01:34:49.032Z,7.07
2018-03-16T01:35:49.762Z,7.09
2018-03-16T01:36:50.509Z,7.04
2018-03-16T01:37:51.146Z,7.04
2018-03-16T01:38:51.833Z,7.12
2018-03-16T01:39:52.473Z,7.04
2018-03-16T01:40:53.133Z,7.03
2018-03-16T01:41:53.737Z,7.09
2018-03-16T01:42:54.400Z,7.07
2018-03-16T01:43:55.091Z,7.03
2018-03-16T01:44:55.737Z,7.07
2018-03-16T01:45:56.378Z,7.04
2018-03-16T01:46:57.014Z,7.02
2018-03-16T01:47:57.690Z,7.07
2018-03-16T01:48:58.378Z,7.02
2018-03-16T01:49:59.044Z,7.06
2018-03-16T01:50:59.644Z,7.07
2018-03-16T01:52:00.314Z,7.04
2018-03-16T01:53:01.004Z,7.09
2018-03-16T01:54:01.603Z,7.07
2018-03-16T01:55:02.267Z,7.06
2018-03-16T01:56:02.825Z,7.06
2018-03-16T01:57:03.516Z,7.00
2018-03-16T01:58:04.171Z,6.97
2018-03-16T01:59:05.837Z,6.97
2018-03-16T02:00:06.491Z,7.02
2018-03-16T02:01:07.124Z,6.97
2018-03-16T02:02:07.814Z,7.03
2018-03-16T02:03:08.493Z,7.04
2018-03-16T02:04:09.149Z,6.94
2018-03-16T02:05:09.789Z,6.94
2018-03-16T02:06:10.448Z,6.85
2018-03-16T02:07:11.151Z,6.92
2018-03-16T02:08:11.786Z,6.89
2018-03-16T02:09:12.464Z,6.92
2018-03-16T02:10:13.025Z,6.89
2018-03-16T02:11:13.703Z,6.84
2018-03-16T02:12:14.370Z,6.82
2018-03-16T02:13:15.054Z,6.78
2018-03-16T02:14:15.706Z,6.76
2018-03-16T02:15:16.360Z,6.82
2018-03-16T02:16:17.035Z,6.76
2018-03-16T02:17:17.677Z,6.79
2018-03-16T02:18:18.366Z,6.81
2018-03-16T02:19:19.008Z,6.79
2018-03-16T02:20:19.652Z,6.73
2018-03-16T02:21:20.318Z,6.66
2018-03-16T02:22:20.964Z,6.70
2018-03-16T02:23:21.535Z,6.73
2018-03-16T02:24:22.249Z,6.71
2018-03-16T02:25:22.930Z,6.68
2018-03-16T02:26:23.535Z,6.70
2018-03-16T02:27:24.228Z,6.68
2018-03-16T02:28:24.884Z,6.64
2018-03-16T02:29:25.510Z,6.61
2018-03-16T02:30:26.121Z,6.67
2018-03-16T02:31:26.773Z,6.61
2018-03-16T02:32:27.454Z,6.61
2018-03-16T02:33:28.104Z,6.52
2018-03-16T02:34:28.779Z,6.52
2018-03-16T02:35:29.383Z,6.53
2018-03-16T02:36:30.061Z,6.46
2018-03-16T02:37:30.747Z,6.55
2018-03-16T02:38:31.405Z,6.43
2018-03-16T02:39:32.050Z,6.46
2018-03-16T02:40:32.748Z,6.42
2018-03-16T02:41:33.376Z,6.49
2018-03-16T02:42:34.055Z,6.45
2018-03-16T02:43:34.717Z,6.38
2018-03-16T02:44:35.362Z,6.40
2018-03-16T02:45:36.041Z,6.45
2018-03-16T02:46:36.600Z,6.40
2018-03-16T02:47:37.272Z,6.39
2018-03-16T02:48:37.913Z,6.38
2018-03-16T02:49:38.583Z,6.38
2018-03-16T02:50:39.260Z,6.27
2018-03-16T02:51:39.932Z,6.34
2018-03-16T02:52:40.579Z,6.20
2018-03-16T02:53:41.202Z,6.25
2018-03-16T02:54:41.880Z,6.19
2018-03-16T02:55:42.486Z,6.11
2018-03-16T02:56:43.134Z,6.22
2018-03-16T02:57:43.769Z,6.24
2018-03-16T02:58:44.391Z,6.20
2018-03-16T02:59:45.015Z,6.11
2018-03-16T03:00:45.586Z,6.12
2018-03-16T03:01:46.252Z,6.06
2018-03-16T03:02:46.938Z,6.11
2018-03-16T03:03:47.616Z,6.08
2018-03-16T03:04:48.254Z,6.12
2018-03-16T03:05:48.904Z,6.12
2018-03-16T03:06:49.615Z,6.04
2018-03-16T03:07:50.224Z,6.11
2018-03-16T03:08:50.887Z,6.05
2018-03-16T03:09:51.540Z,6.09
2018-03-16T03:10:52.181Z,6.12
2018-03-16T03:11:52.814Z,6.06
2018-03-16T03:12:53.492Z,6.08
2018-03-16T03:13:54.126Z,6.05
2018-03-16T03:14:54.717Z,6.04
2018-03-16T03:15:55.376Z,6.13
2018-03-16T03:16:56.008Z,6.12
2018-03-16T03:17:56.667Z,6.15
2018-03-16T03:18:57.317Z,6.11
2018-03-16T03:19:57.993Z,6.12
2018-03-16T03:20:58.653Z,6.12
2018-03-16T03:21:59.305Z,6.11
2018-03-16T03:22:59.966Z,6.12
2018-03-16T03:24:00.610Z,6.13
2018-03-16T03:25:01.282Z,6.15
2018-03-16T03:26:01.972Z,6.01
2018-03-16T03:27:02.570Z,6.09
2018-03-16T03:28:03.235Z,6.15
2018-03-16T03:29:03.800Z,6.13
2018-03-16T03:30:04.705Z,6.15
2018-03-16T03:31:05.421Z,6.08
2018-03-16T03:32:06.061Z,6.13
2018-03-16T03:33:06.753Z,6.13
2018-03-16T03:34:07.390Z,6.08
2018-03-16T03:35:08.066Z,6.08
2018-03-16T03:36:08.754Z,6.12
2018-03-16T03:37:09.458Z,6.08
2018-03-16T03:38:10.084Z,6.09
2018-03-16T03:39:10.734Z,6.13
2018-03-16T03:40:11.416Z,6.11
2018-03-16T03:41:12.034Z,6.06
2018-03-16T03:42:12.758Z,6.12
2018-03-16T03:43:13.450Z,6.13
2018-03-16T03:44:14.167Z,6.12
2018-03-16T03:45:14.830Z,6.08
2018-03-16T03:46:15.511Z,6.06
2018-03-16T03:47:16.236Z,5.97
2018-03-16T03:48:16.885Z,5.99
2018-03-16T03:49:17.520Z,5.97
2018-03-16T03:50:18.210Z,5.93
2018-03-16T03:51:18.892Z,6.06
2018-03-16T03:52:19.611Z,5.94
2018-03-16T03:53:20.264Z,5.93
2018-03-16T03:54:20.890Z,5.94
2018-03-16T03:55:21.504Z,5.94
2018-03-16T03:56:22.174Z,5.91
2018-03-16T03:57:22.839Z,5.94
2018-03-16T03:58:23.514Z,5.97
2018-03-16T03:59:24.162Z,5.90
2018-03-16T04:00:24.828Z,5.94
2018-03-16T04:01:25.468Z,5.88
2018-03-16T04:02:26.146Z,5.94
2018-03-16T04:03:26.827Z,5.91
2018-03-16T04:04:27.478Z,5.90
2018-03-16T04:05:28.152Z,5.84
2018-03-16T04:06:28.831Z,5.88
2018-03-16T04:07:29.470Z,5.87
2018-03-16T04:08:30.126Z,5.88
2018-03-16T04:09:30.804Z,5.78
2018-03-16T04:10:31.359Z,5.76
2018-03-16T04:11:32.017Z,5.78
2018-03-16T04:12:32.706Z,5.68
2018-03-16T04:13:33.376Z,5.70
2018-03-16T04:14:34.023Z,5.69
2018-03-16T04:15:34.834Z,5.70
2018-03-16T04:16:35.503Z,5.73
2018-03-16T04:17:36.126Z,5.66
2018-03-16T04:18:36.795Z,5.58
2018-03-16T04:19:37.415Z,5.63
2018-03-16T04:20:38.090Z,5.61
2018-03-16T04:21:38.736Z,5.60
2018-03-16T04:22:39.416Z,5.57
2018-03-16T04:23:40.032Z,5.61
2018-03-16T04:24:40.595Z,5.60
2018-03-16T04:25:41.269Z,5.66
2018-03-16T04:26:41.948Z,5.63
2018-03-16T04:27:42.619Z,5.63
2018-03-16T04:28:43.269Z,5.63
2018-03-16T04:29:43.986Z,5.58
2018-03-16T04:30:44.576Z,5.63
2018-03-16T04:31:45.272Z,5.65
2018-03-16T04:32:45.920Z,5.60
2018-03-16T04:33:46.562Z,5.61
2018-03-16T04:34:47.247Z,5.61
2018-03-16T04:35:47.923Z,5.65
2018-03-16T04:36:48.660Z,5.68
2018-03-16T04:37:49.301Z,5.65
2018-03-16T04:38:49.852Z,5.66
2018-03-16T04:39:50.538Z,5.70
2018-03-16T04:40:51.224Z,5.70
2018-03-16T04:41:51.952Z,5.72
2018-03-16T04:42:52.590Z,5.76
2018-03-16T04:43:53.276Z,5.78
2018-03-16T04:44:53.940Z,5.79
2018-03-16T04:45:54.597Z,5.81
2018-03-16T04:46:55.269Z,5.81
2018-03-16T04:47:55.933Z,5.81
2018-03-16T04:48:56.600Z,5.75
2018-03-16T04:49:57.269Z,5.72
2018-03-16T04:50:57.914Z,5.73
2018-03-16T04:51:58.555Z,5.76
2018-03-16T04:52:59.139Z,5.75
2018-03-16T04:53:59.786Z,5.76
2018-03-16T04:55:00.483Z,5.83
2018-03-16T04:56:01.147Z,5.83
2018-03-16T04:57:01.797Z,5.79
2018-03-16T04:58:02.504Z,5.83
2018-03-16T04:59:03.125Z,5.79
2018-03-16T05:00:03.858Z,5.79
2018-03-16T05:01:04.466Z,5.81
2018-03-16T05:02:05.118Z,5.88
2018-03-16T05:03:05.954Z,5.94
2018-03-16T05:04:06.612Z,5.88
2018-03-16T05:05:07.269Z,5.90
2018-03-16T05:06:07.846Z,5.91
2018-03-16T05:07:08.439Z,5.91
2018-03-16T05:08:09.095Z,6.01
2018-03-16T05:09:09.777Z,5.93
2018-03-16T05:10:10.448Z,5.90
2018-03-16T05:11:11.115Z,5.88
2018-03-16T05:12:11.779Z,5.93
2018-03-16T05:13:12.477Z,5.90
2018-03-16T05:14:13.159Z,5.83
2018-03-16T05:15:13.804Z,5.87
2018-03-16T05:16:14.461Z,5.87
2018-03-16T05:17:15.100Z,5.83
2018-03-16T05:18:15.747Z,5.78
2018-03-16T05:19:16.487Z,5.81
2018-03-16T05:20:17.055Z,5.78
2018-03-16T05:21:17.736Z,5.75
2018-03-16T05:22:18.415Z,5.73
2018-03-16T05:23:19.212Z,5.68
2018-03-16T05:24:19.880Z,5.73
2018-03-16T05:25:20.550Z,5.70
2018-03-16T05:26:21.183Z,5.70
2018-03-16T05:27:21.855Z,5.73
2018-03-16T05:28:22.533Z,5.76
2018-03-16T05:29:23.181Z,5.69
2018-03-16T05:30:23.897Z,5.75
2018-03-16T05:31:24.511Z,5.79
2018-03-16T05:32:25.205Z,5.86
2018-03-16T05:33:26.147Z,5.83
2018-03-16T05:34:26.713Z,5.84
2018-03-16T05:35:27.333Z,5.87
2018-03-16T05:36:28.021Z,5.79
2018-03-16T05:37:28.662Z,5.86
2018-03-16T05:38:29.351Z,5.93
2018-03-16T05:39:30.020Z,5.91
2018-03-16T05:40:30.684Z,5.91
2018-03-16T05:41:31.337Z,5.91
2018-03-16T05:42:32.213Z,5.94
2018-03-16T05:43:32.866Z,5.91
2018-03-16T05:44:33.538Z,5.94
2018-03-16T05:45:34.202Z,5.99
2018-03-16T05:46:34.871Z,5.97
2018-03-16T05:47:35.511Z,6.05
2018-03-16T05:48:36.202Z,6.08
2018-03-16T05:49:36.786Z,6.02
2018-03-16T05:50:37.445Z,6.06
2018-03-16T05:51:38.137Z,6.15
2018-03-16T05:52:38.813Z,6.15
2018-03-16T05:53:39.481Z,6.19
2018-03-16T05:54:40.153Z,6.13
2018-03-16T05:55:40.794Z,6.16
2018-03-16T05:56:41.485Z,6.15
2018-03-16T05:57:42.125Z,6.12
2018-03-16T05:58:42.772Z,6.09
2018-03-16T05:59:43.460Z,6.13
2018-03-16T06:00:44.053Z,6.16
2018-03-16T06:01:44.733Z,6.20
2018-03-16T06:02:45.388Z,6.25
2018-03-16T06:03:45.980Z,6.25
2018-03-16T06:04:46.555Z,6.28
2018-03-16T06:05:47.274Z,6.30
2018-03-16T06:06:47.960Z,6.31
2018-03-16T06:07:48.642Z,6.34
2018-03-16T06:08:49.339Z,6.39
2018-03-16T06:09:49.980Z,6.31
2018-03-16T06:10:50.661Z,6.34
2018-03-16T06:11:51.292Z,6.28
2018-03-16T06:12:51.948Z,6.34
2018-03-16T06:13:52.629Z,6.30
2018-03-16T06:14:53.290Z,6.38
2018-03-16T06:15:53.972Z,6.32
2018-03-16T06:16:54.631Z,6.30
2018-03-16T06:17:55.337Z,6.31
2018-03-16T06:18:55.957Z,6.28
2018-03-16T06:19:56.546Z,6.34
2018-03-16T06:20:57.236Z,6.32
2018-03-16T06:21:57.892Z,6.35
2018-03-16T06:22:58.560Z,6.32
2018-03-16T06:23:59.234Z,6.43
2018-03-16T06:24:59.881Z,6.45
2018-03-16T06:26:00.575Z,6.42
2018-03-16T06:27:01.203Z,6.43
2018-03-16T06:28:01.890Z,6.40
2018-03-16T06:29:02.535Z,6.48
2018-03-16T06:30:03.202Z,6.50
2018-03-16T06:31:03.887Z,6.46
2018-03-16T06:32:04.550Z,6.49
2018-03-16T06:33:05.241Z,6.49
2018-03-16T06:34:05.887Z,6.53
2018-03-16T06:35:06.468Z,6.58
2018-03-16T06:36:07.137Z,6.66
2018-03-16T06:37:07.821Z,6.60
2018-03-16T06:38:08.469Z,6.55
2018-03-16T06:39:09.151Z,6.67
2018-03-16T06:40:09.788Z,6.68
2018-03-16T06:41:10.447Z,6.66
2018-03-16T06:42:11.142Z,6.66
2018-03-16T06:43:11.775Z,6.67
2018-03-16T06:44:12.453Z,6.68
2018-03-16T06:45:13.112Z,6.67
2018-03-16T06:46:13.786Z,6.68
2018-03-16T06:47:14.466Z,6.71
2018-03-16T06:48:15.074Z,6.76
2018-03-16T06:49:15.761Z,6.70
2018-03-16T06:50:16.341Z,6.66
2018-03-16T06:51:17.048Z,6.71
2018-03-16T06:52:17.705Z,6.70
2018-03-16T06:53:18.365Z,6.73
2018-03-16T06:54:19.024Z,6.81
2018-03-16T06:55:19.728Z,6.82
2018-03-16T06:56:20.396Z,6.81
2018-03-16T06:57:21.103Z,6.75
2018-03-16T06:58:21.778Z,6.82
2018-03-16T06:59:22.451Z,6.94
2018-03-16T07:00:23.113Z,6.88
2018-03-16T07:01:23.801Z,6.91
2018-03-16T07:02:24.439Z,6.97
2018-03-16T07:03:25.111Z,6.99
2018-03-16T07:04:25.740Z,6.97
2018-03-16T07:05:26.316Z,6.97
2018-03-16T07:06:26.992Z,7.00
2018-03-16T07:07:27.659Z,6.97
2018-03-16T07:08:28.333Z,6.99
2018-03-16T07:09:28.999Z,6.99
2018-03-16T07:10:29.698Z,7.02
2018-03-16T07:11:30.342Z,7.06
2018-03-16T07:12:31.022Z,7.15
2018-03-16T07:13:31.692Z,7.17
2018-03-16T07:14:32.390Z,7.15
2018-03-16T07:15:33.027Z,7.14
2018-03-16T07:16:33.681Z,7.24
2018-03-16T07:17:34.368Z,7.10
2018-03-16T07:18:34.980Z,7.14
2018-03-16T07:19:35.609Z,7.25
2018-03-16T07:20:36.273Z,7.17
2018-03-16T07:21:36.960Z,7.14
2018-03-16T07:22:37.593Z,7.17
2018-03-16T07:23:38.246Z,7.14
2018-03-16T07:24:38.902Z,7.17
2018-03-16T07:25:39.579Z,7.10
2018-03-16T07:26:40.284Z,7.14
2018-03-16T07:27:40.956Z,7.14
2018-03-16T07:28:41.620Z,7.14
2018-03-16T07:29:42.251Z,7.15
2018-03-16T07:30:42.917Z,7.14
2018-03-16T07:31:43.574Z,7.15
2018-03-16T07:32:44.229Z,7.10
2018-03-16T07:33:44.876Z,7.14
2018-03-16T07:34:45.496Z,7.04
2018-03-16T07:35:46.122Z,7.07
2018-03-16T07:36:46.835Z,7.07
2018-03-16T07:37:47.522Z,7.07
2018-03-16T07:38:48.174Z,7.06
2018-03-16T07:39:48.822Z,7.06
2018-03-16T07:40:49.752Z,7.12
2018-03-16T07:41:50.444Z,7.06
2018-03-16T07:42:51.172Z,7.03
2018-03-16T07:43:51.838Z,6.99
2018-03-16T07:44:52.517Z,7.00
2018-03-16T07:45:53.171Z,7.04
2018-03-16T07:46:53.806Z,7.04
2018-03-16T07:47:54.417Z,7.02
2018-03-16T07:48:55.085Z,6.94
2018-03-16T07:49:55.770Z,7.00
2018-03-16T07:50:56.414Z,6.85
2018-03-16T07:51:57.089Z,6.85
2018-03-16T07:52:57.762Z,6.82
2018-03-16T07:53:58.412Z,6.99
2018-03-16T07:54:59.059Z,7.00
2018-03-16T07:55:59.709Z,6.97
2018-03-16T07:57:00.356Z,7.00
2018-03-16T07:58:01.067Z,6.92
2018-03-16T07:59:01.798Z,7.02
2018-03-16T08:00:02.357Z,7.06
2018-03-16T08:01:03.051Z,7.12
2018-03-16T08:02:03.718Z,7.17
2018-03-16T08:03:04.376Z,7.14
2018-03-16T08:04:05.042Z,7.14
2018-03-16T08:05:05.976Z,7.24
2018-03-16T08:06:06.634Z,7.25
2018-03-16T08:07:07.316Z,7.33
2018-03-16T08:08:07.985Z,7.28
2018-03-16T08:09:08.636Z,7.29
2018-03-16T08:10:09.295Z,7.35
2018-03-16T08:11:54.142Z,7.39
2018-03-16T08:12:54.970Z,7.36
2018-03-16T08:13:55.548Z,7.53
2018-03-16T08:14:56.150Z,7.45
2018-03-16T08:15:56.754Z,7.55
2018-03-16T08:16:57.453Z,7.64
2018-03-16T08:17:58.108Z,7.61
2018-03-16T08:18:58.877Z,7.66
2018-03-16T08:19:59.559Z,7.69
2018-03-16T08:21:00.272Z,7.73
2018-03-16T08:22:00.964Z,7.72
2018-03-16T08:23:01.676Z,7.66
2018-03-16T08:24:02.402Z,7.73
2018-03-16T08:25:03.117Z,7.80
2018-03-16T08:26:03.778Z,7.80
2018-03-16T08:27:04.439Z,7.80
2018-03-16T08:28:05.133Z,7.79
2018-03-16T08:29:05.762Z,7.72
2018-03-16T08:30:06.394Z,7.80
2018-03-16T08:31:07.112Z,7.83
2018-03-16T08:32:07.898Z,7.81
2018-03-16T08:33:08.620Z,7.88
2018-03-16T08:34:09.319Z,7.91
2018-03-16T08:35:10.266Z,7.91
2018-03-16T08:36:10.935Z,8.01
2018-03-16T08:37:11.687Z,7.99
2018-03-16T08:38:12.333Z,8.07
2018-03-16T08:39:13.104Z,8.01
2018-03-16T08:40:13.713Z,8.01
2018-03-16T08:41:14.366Z,8.04
2018-03-16T08:42:15.285Z,8.06
2018-03-16T08:43:15.967Z,8.04
2018-03-16T08:44:16.707Z,7.97
2018-03-16T08:45:17.384Z,8.06
2018-03-16T08:46:18.060Z,8.07
2018-03-16T08:47:18.690Z,7.97
2018-03-16T08:48:19.486Z,8.02
2018-03-16T08:49:20.109Z,8.02
2018-03-16T08:50:20.746Z,8.06
2018-03-16T08:51:21.385Z,8.07
2018-03-16T08:52:22.101Z,8.04
2018-03-16T08:53:22.791Z,8.12
2018-03-16T08:54:23.425Z,8.19
2018-03-16T08:55:24.009Z,8.16
2018-03-16T08:56:24.736Z,8.07
2018-03-16T08:57:25.679Z,8.17
2018-03-16T08:58:26.420Z,8.17
2018-03-16T08:59:27.146Z,8.17
2018-03-16T09:00:27.897Z,8.17
2018-03-16T09:01:28.591Z,8.28
2018-03-16T09:02:29.232Z,8.27
2018-03-16T09:03:29.986Z,8.30
2018-03-16T09:04:30.661Z,8.33
2018-03-16T09:05:31.355Z,8.27
2018-03-16T09:06:32.081Z,8.27
2018-03-16T09:07:32.767Z,8.41
2018-03-16T09:08:33.727Z,8.35
2018-03-16T09:09:34.397Z,8.43
2018-03-16T09:10:35.073Z,8.48
2018-03-16T09:11:35.907Z,8.55
2018-03-16T09:12:36.613Z,8.46
2018-03-16T09:13:37.249Z,8.49
2018-03-16T09:14:37.979Z,8.48
2018-03-16T09:15:38.716Z,8.64
2018-03-16T09:16:39.445Z,8.55
2018-03-16T09:17:40.083Z,8.64
2018-03-16T09:18:40.782Z,8.81
2018-03-16T09:19:41.396Z,8.76
2018-03-16T09:20:42.042Z,8.77
2018-03-16T09:21:42.755Z,8.77
2018-03-16T09:22:43.369Z,8.78
2018-03-16T09:23:43.948Z,8.86
2018-03-16T09:24:44.559Z,8.85
2018-03-16T09:25:45.344Z,8.98
2018-03-16T09:26:46.030Z,8.95
2018-03-16T09:27:46.637Z,8.98
2018-03-16T09:28:47.313Z,9.03
2018-03-16T09:29:48.050Z,9.06
2018-03-16T09:30:48.676Z,9.14
2018-03-16T09:31:49.568Z,9.17
2018-03-16T09:32:50.248Z,9.06
2018-03-16T09:33:50.932Z,9.15
2018-03-16T09:34:51.571Z,9.22
2018-03-16T09:35:52.530Z,9.23
2018-03-16T09:36:53.168Z,9.28
2018-03-16T09:37:53.824Z,9.33
2018-03-16T09:38:54.559Z,9.41
2018-03-16T09:39:55.256Z,9.51
2018-03-16T09:40:55.928Z,9.51
2018-03-16T09:41:56.607Z,9.59
2018-03-16T09:42:57.316Z,9.63
2018-03-16T09:43:57.940Z,9.65
2018-03-16T09:44:58.587Z,9.71
2018-03-16T09:45:59.316Z,9.61
2018-03-16T09:46:59.994Z,9.68
2018-03-16T09:48:00.730Z,9.77
2018-03-16T09:49:01.404Z,9.72
2018-03-16T09:50:02.453Z,9.72
2018-03-16T09:51:03.077Z,9.80
2018-03-16T09:52:03.701Z,9.86
2018-03-16T09:53:04.433Z,9.87
2018-03-16T09:54:05.014Z,9.90
2018-03-16T09:55:05.682Z,9.91
2018-03-16T09:56:06.307Z,9.91
2018-03-16T09:57:07.013Z,9.95
2018-03-16T09:58:07.699Z,9.94
2018-03-16T09:59:08.495Z,9.95
2018-03-16T10:00:09.089Z,10.05
2018-03-16T10:01:09.716Z,10.04
2018-03-16T10:02:10.337Z,10.04
2018-03-16T10:03:11.020Z,10.05
2018-03-16T10:04:11.788Z,10.09
2018-03-16T10:05:12.688Z,10.06
2018-03-16T10:06:13.333Z,10.17
2018-03-16T10:07:14.091Z,10.14
2018-03-16T10:08:14.741Z,10.06
2018-03-16T10:09:15.668Z,10.14
2018-03-16T10:10:16.329Z,10.05
2018-03-16T10:11:17.013Z,10.04
2018-03-16T10:12:17.704Z,9.98
2018-03-16T10:13:18.407Z,9.95
2018-03-16T10:14:19.136Z,9.90
2018-03-16T10:15:19.849Z,9.95
2018-03-16T10:16:20.504Z,9.86
2018-03-16T10:17:21.436Z,9.90
2018-03-16T10:18:22.175Z,9.91
2018-03-16T10:19:22.828Z,9.91
2018-03-16T10:20:23.516Z,9.98
2018-03-16T10:21:24.186Z,10.09
2018-03-16T10:22:25.171Z,10.02
2018-03-16T10:23:25.867Z,9.99
2018-03-16T10:24:26.509Z,10.02
2018-03-16T10:25:27.111Z,10.02
2018-03-16T10:26:28.099Z,10.12
2018-03-16T10:27:28.737Z,9.99
2018-03-16T10:28:29.512Z,10.09
2018-03-16T10:29:30.231Z,10.09
2018-03-16T10:30:30.906Z,10.12
2018-03-16T10:31:31.590Z,10.19
2018-03-16T10:32:32.268Z,10.16
2018-03-16T10:33:32.951Z,10.14
2018-03-16T10:34:33.648Z,10.19
2018-03-16T10:35:34.324Z,10.19
2018-03-16T10:36:35.019Z,10.23
2018-03-16T10:37:35.736Z,10.17
2018-03-16T10:38:36.428Z,10.32
2018-03-16T10:39:37.102Z,10.24
2018-03-16T10:40:37.845Z,10.32
2018-03-16T10:41:38.546Z,10.41
2018-03-16T10:42:39.222Z,10.39
2018-03-16T10:43:39.962Z,10.29
2018-03-16T10:44:40.658Z,10.34
2018-03-16T10:45:41.383Z,10.42
2018-03-16T10:46:42.021Z,10.47
2018-03-16T10:47:42.819Z,10.49
2018-03-16T10:48:43.564Z,10.53
2018-03-16T10:49:44.149Z,10.58
2018-03-16T10:50:44.874Z,10.54
2018-03-16T10:51:45.566Z,10.64
2018-03-16T10:52:46.321Z,10.61
2018-03-16T10:53:47.014Z,10.67
2018-03-16T10:54:47.735Z,10.72
2018-03-16T10:55:48.421Z,10.78
2018-03-16T10:56:49.226Z,10.79
2018-03-16T10:57:49.918Z,10.79
2018-03-16T10:58:50.588Z,10.81
2018-03-16T10:59:51.275Z,10.81
2018-03-16T11:00:51.941Z,10.83
2018-03-16T11:01:52.667Z,10.87
2018-03-16T11:02:53.361Z,10.82
2018-03-16T11:03:54.063Z,10.89
2018-03-16T11:04:54.704Z,10.89
2018-03-16T11:05:55.303Z,11.01
2018-03-16T11:06:56.050Z,11.03
2018-03-16T11:07:56.708Z,11.03
2018-03-16T11:08:57.415Z,11.09
2018-03-16T11:09:58.088Z,11.21
2018-03-16T11:10:58.671Z,11.16
2018-03-16T11:11:59.374Z,11.27
2018-03-16T11:13:00.068Z,11.26
2018-03-16T11:14:00.782Z,11.33
2018-03-16T11:15:01.498Z,11.29
2018-03-16T11:16:02.188Z,11.33
2018-03-16T11:17:02.776Z,11.22
2018-03-16T11:18:03.478Z,11.30
2018-03-16T11:19:04.163Z,11.21
2018-03-16T11:20:04.927Z,11.16
2018-03-16T11:21:05.599Z,11.14
2018-03-16T11:22:06.312Z,11.08
2018-03-16T11:23:06.958Z,11.00
2018-03-16T11:24:07.670Z,10.90
2018-03-16T11:25:08.369Z,10.93
2018-03-16T11:26:09.106Z,10.85
2018-03-16T11:27:09.789Z,10.74
2018-03-16T11:28:10.520Z,10.83
2018-03-16T11:29:11.182Z,10.74
2018-03-16T11:30:11.845Z,10.66
2018-03-16T11:31:12.549Z,10.63
2018-03-16T11:32:13.208Z,10.61
2018-03-16T11:33:13.888Z,10.54
2018-03-16T11:34:14.666Z,10.51
2018-03-16T11:35:15.309Z,10.51
2018-03-16T11:36:15.972Z,10.56
2018-03-16T11:37:16.599Z,10.51
2018-03-16T11:38:17.283Z,10.51
2018-03-16T11:39:17.937Z,10.44
2018-03-16T11:40:18.552Z,10.35
2018-03-16T11:41:19.212Z,10.39
2018-03-16T11:42:19.908Z,10.39
2018-03-16T11:43:20.588Z,10.37
2018-03-16T11:44:31.570Z,10.39
2018-03-16T11:45:33.053Z,10.27
2018-03-16T11:46:33.737Z,10.27
2018-03-16T11:47:34.449Z,10.35
2018-03-16T11:48:35.053Z,10.35
2018-03-16T11:49:35.719Z,10.42
2018-03-16T11:50:36.435Z,10.45
2018-03-16T11:51:37.116Z,10.38
2018-03-16T11:52:37.839Z,10.39
2018-03-16T11:53:38.491Z,10.51
2018-03-16T11:54:39.118Z,10.47
2018-03-16T11:55:39.909Z,10.51
2018-03-16T11:56:40.564Z,10.45
2018-03-16T11:57:41.290Z,10.45
2018-03-16T11:58:41.898Z,10.51
2018-03-16T11:59:42.625Z,10.51
2018-03-16T12:00:43.223Z,10.53
2018-03-16T12:01:43.898Z,10.49
2018-03-16T12:02:44.620Z,10.41
2018-03-16T12:03:45.307Z,10.38
2018-03-16T12:04:45.992Z,10.41
2018-03-16T12:05:46.752Z,10.38
2018-03-16T12:06:47.432Z,10.47
2018-03-16T12:07:48.082Z,10.41
2018-03-16T12:08:48.828Z,10.41
2018-03-16T12:09:49.512Z,10.31
2018-03-16T12:10:50.234Z,10.34
2018-03-16T12:11:50.931Z,10.22
2018-03-16T12:12:51.663Z,10.32
2018-03-16T12:13:52.398Z,10.32
2018-03-16T12:14:53.125Z,10.31
2018-03-16T12:15:53.791Z,10.37
2018-03-16T12:16:54.461Z,10.35
2018-03-16T12:17:55.164Z,10.37
2018-03-16T12:18:55.819Z,10.35
2018-03-16T12:19:56.581Z,10.35
2018-03-16T12:20:57.484Z,10.31
2018-03-16T12:21:58.170Z,10.37
2018-03-16T12:22:58.868Z,10.37
2018-03-16T12:23:59.552Z,10.39
2018-03-16T12:25:00.173Z,10.37
2018-03-16T12:26:01.082Z,10.29
2018-03-16T12:27:01.774Z,10.20
2018-03-16T12:28:02.372Z,10.22
2018-03-16T12:29:03.112Z,10.16
2018-03-16T12:30:03.836Z,9.99
2018-03-16T12:31:04.578Z,9.98
2018-03-16T12:32:05.278Z,10.01
2018-03-16T12:33:05.962Z,10.02
2018-03-16T12:34:06.622Z,10.02
2018-03-16T12:35:07.303Z,10.02
2018-03-16T12:36:08.016Z,10.04
2018-03-16T12:37:08.691Z,10.12
2018-03-16T12:38:09.376Z,10.19
2018-03-16T12:39:10.071Z,10.14
2018-03-16T12:40:10.788Z,10.16
2018-03-16T12:41:11.485Z,10.14
2018-03-16T12:42:12.160Z,10.12
2018-03-16T12:43:12.800Z,10.23
2018-03-16T12:44:13.551Z,10.17
2018-03-16T12:45:14.312Z,10.09
2018-03-16T12:46:14.987Z,10.01
2018-03-16T12:47:15.683Z,10.02
2018-03-16T12:48:16.383Z,10.06
2018-03-16T12:49:17.063Z,10.04
2018-03-16T12:50:17.978Z,10.01
2018-03-16T12:51:18.672Z,10.06
2018-03-16T12:52:19.341Z,9.95
2018-03-16T12:53:19.988Z,9.86
2018-03-16T12:54:20.661Z,9.83
2018-03-16T12:55:21.283Z,9.81
2018-03-16T12:56:21.920Z,9.87
2018-03-16T12:57:22.619Z,9.79
2018-03-16T12:58:23.257Z,9.79
2018-03-16T12:59:23.847Z,9.79
2018-03-16T13:00:24.562Z,9.83
2018-03-16T13:01:25.250Z,9.79
2018-03-16T13:02:25.938Z,9.86
2018-03-16T13:03:26.645Z,9.76
2018-03-16T13:04:27.374Z,9.88
2018-03-16T13:05:28.334Z,9.87
2018-03-16T13:06:29.082Z,9.87
2018-03-16T13:07:29.795Z,9.95
2018-03-16T13:08:30.504Z,9.95
2018-03-16T13:09:31.270Z,9.84
2018-03-16T13:10:31.974Z,9.88
2018-03-16T13:11:32.658Z,10.01
2018-03-16T13:12:33.393Z,10.04
2018-03-16T13:13:34.096Z,10.20
2018-03-16T13:14:34.828Z,10.20
2018-03-16T13:15:35.491Z,10.27
2018-03-16T13:16:36.196Z,10.32
2018-03-16T13:17:36.940Z,10.26
2018-03-16T13:18:37.748Z,10.19
2018-03-16T13:19:38.401Z,10.20
2018-03-16T13:20:39.055Z,10.17
2018-03-16T13:21:40.108Z,10.23
2018-03-16T13:22:40.725Z,10.20